Latest Coastal Weather Observations for Ballina

IDN60701

Issued at 5:12 pm EST Monday 29 August 2016 (issued every 10 minutes, with the page automatically refreshed every 10 minutes)

About coastal observations | Map of coastal stations | Coastal observations for NSW | Marine services | Other Formats
Station Details ID: 058198 Name: BALLINA AIRPORT AWS Lat: -28.84 Lon: 153.56 Height: 1.3 m
Data from the previous 72 hours. | See also: Recent months at Ballina
Date/Time
EST
Temp
°C
Wind Pressure Rain since
9am
mm
Weather Cloud Vis
km
Sea
Height
m
Swell
Dir  Spd
kts
Gust
kts
hPa Trend Height
m
Period
s
Dir
29/05:00pm 18.8 ENE 7 9 1025.4 - 0.0 - - 10 - - - -
29/04:30pm 19.7 ENE 8 11 1025.4 - 0.0 - - 10 - - - -
29/04:00pm 20.4 ENE 9 13 1024.9 - 0.0 - - 10 - - - -
29/03:30pm 20.9 NE 10 13 1024.7 - 0.0 - - 10 - - - -
29/03:00pm 20.9 ENE 9 11 1024.8 - 0.0 - - 10 - - - -
29/02:30pm 20.9 ENE 8 11 1024.8 - 0.0 - - 10 - - - -
29/02:00pm 21.0 ESE 9 11 1024.8 - 0.0 - - 10 - - - -
29/01:30pm 20.9 ESE 8 11 1024.8 - 0.0 - - 10 - - - -
29/01:00pm 21.5 SE 7 9 1025.2 - 0.0 - - 10 - - - -
29/12:30pm 20.9 SSE 9 12 1025.4 - 0.0 - - 10 - - - -
29/12:00pm 20.6 SSE 9 11 1025.9 - 0.0 - Mostly clear 10 - - - -
29/11:30am 20.9 SSW 4 6 1026.1 - 0.0 - - 10 - - - -
29/11:00am 20.1 WSW 5 7 1026.5 - 0.0 - - 10 - - - -
29/10:30am 19.4 W 5 8 1026.6 - 0.0 - - 10 - - - -
29/10:00am 18.5 SW 7 9 1026.7 - 0.0 - - 10 - - - -
29/09:30am 17.8 SW 8 10 1026.9 - 0.0 - - 10 - - - -
29/09:00am 16.6 WSW 7 9 1026.7 - 0.0 - - 10 - - - -
29/08:30am 15.5 WSW 7 10 1026.8 - 0.0 - - 10 - - - -
29/08:00am 14.6 WSW 8 9 1026.5 - 0.0 - - 10 - - - -
29/07:30am 13.4 W 8 10 1025.9 - 0.0 - - 10 - - - -
29/07:00am 11.3 WSW 6 7 1025.6 - 0.0 - - 10 - - - -
29/06:30am 9.5 WSW 6 7 1025.2 - 0.0 - - 10 - - - -
29/06:19am 7.9 WNW 3 6 1024.9 - 0.0 - - 10 - - - -
29/06:00am 7.4 CALM 0 0 1024.5 - 0.0 - - 2 - - - -
29/05:30am 8.2 CALM 0 0 1024.2 - 0.0 - - 10 - - - -
29/05:07am 8.4 CALM 0 0 1024.0 - 0.0 - - 5 - - - -
29/05:00am 8.5 CALM 0 0 1023.8 - 0.0 - - 10 - - - -
29/04:57am 8.4 CALM 0 0 1023.8 - 0.0 - - 10 - - - -
29/04:30am 8.7 CALM 0 0 1023.5 - 0.0 - - 0.3 - - - -
29/04:18am 8.7 CALM 0 0 1023.4 - 0.0 - - 3 - - - -
29/04:06am 8.8 CALM 0 0 1023.3 - 0.0 - - 10 - - - -
29/04:00am 8.8 CALM 0 0 1023.3 - 0.0 - - 10 - - - -
29/03:43am 8.8 CALM 0 0 1023.3 - 0.0 - - 4 - - - -
29/03:30am 9.5 CALM 0 0 1023.2 - 0.0 - - 10 - - - -
29/03:00am 8.8 CALM 0 0 1023.1 - 0.0 - - 0.4 - - - -
29/02:42am 8.5 CALM 0 0 1023.1 - 0.0 - - 4 - - - -
29/02:30am 9.2 CALM 0 0 1023.2 - 0.0 - - 10 - - - -
29/02:02am 9.6 CALM 0 0 1023.5 - 0.0 - - 10 - - - -
29/02:00am 9.6 CALM 0 0 1023.5 - 0.0 - - 10 - - - -
29/01:44am 9.3 CALM 0 0 1023.4 - 0.0 - - 5 - - - -
29/01:30am 9.8 CALM 0 0 1023.5 - 0.0 - - 10 - - - -
29/01:00am 9.8 CALM 0 0 1023.5 - 0.0 - - 10 - - - -
29/12:30am 10.1 CALM 0 0 1023.5 - 0.0 - - 10 - - - -
29/12:27am 10.1 CALM 0 0 1023.5 - 0.0 - - 10 - - - -
29/12:04am 9.8 CALM 0 0 1023.4 - 0.0 - - 5 - - - -
29/12:00am 10.4 CALM 0 0 1023.3 - 0.0 - - 10 - - - -
 
Date/Time
EST
Temp
°C
Wind Pressure Rain since
9am
mm
Weather Cloud Vis
km
Sea
Height
m
Swell
Dir  Spd
kts
Gust
kts
hPa Trend Height
m
Period
s
Dir
28/11:30pm 10.2 CALM 0 0 1023.2 - 0.0 - - 10 - - - -
28/11:00pm 10.8 CALM 0 0 1023.2 - 0.0 - - 10 - - - -
28/10:30pm 10.7 CALM 0 0 1023.3 - 0.0 - - 10 - - - -
28/10:00pm 11.0 CALM 0 0 1023.3 - 0.0 - - 10 - - - -
28/09:30pm 11.4 N 3 4 1023.3 - 0.0 - - 10 - - - -
28/09:00pm 12.2 N 4 5 1023.2 - 0.0 - - 10 - - - -
28/08:30pm 13.0 N 4 5 1023.0 - 0.0 - - 10 - - - -
28/08:00pm 12.6 N 2 5 1023.0 - 0.0 - - 10 - - - -
28/07:30pm 13.1 N 4 5 1022.8 - 0.0 - - 10 - - - -
28/07:00pm 14.5 N 5 6 1022.7 - 0.0 - - 10 - - - -
28/06:30pm 14.2 N 1 4 1022.3 - 0.0 - - 10 - - - -
28/06:00pm 15.1 NNE 3 4 1022.1 - 0.0 - - 10 - - - -
28/05:30pm 16.2 NE 4 5 1021.8 - 0.0 - - 10 - - - -
28/05:00pm 17.9 ENE 5 7 1021.7 - 0.0 - - 10 - - - -
28/04:30pm 19.3 E 7 8 1021.3 - 0.0 - - 10 - - - -
28/04:00pm 19.7 E 6 9 1021.2 - 0.0 - - 10 - - - -
28/03:30pm 20.2 E 8 10 1021.0 - 0.0 - - 10 - - - -
28/03:00pm 20.8 ESE 8 11 1021.1 - 0.0 - - 10 - - - -
28/02:30pm 20.6 ESE 9 11 1021.2 - 0.0 - - 10 - - - -
28/02:00pm 20.7 SE 9 12 1021.3 - 0.0 - - 10 - - - -
28/01:30pm 21.3 SE 9 12 1021.5 - 0.0 - - 10 - - - -
28/01:00pm 21.3 SE 7 11 1022.0 - 0.0 - - 10 - - - -
28/12:30pm 20.6 E 6 8 1022.4 - 0.0 - Partly cloudy 10 - - - -
28/12:00pm 20.3 S 5 9 1022.8 - 0.0 - Mostly clear 10 - - - -
28/11:30am 19.6 S 6 10 1023.3 - 0.0 - - 10 - - - -
28/11:00am 19.7 S 6 12 1023.7 - 0.0 - - 10 - - - -
28/10:30am 19.1 WSW 7 11 1024.0 - 0.0 - Partly cloudy 10 - - - -
28/10:00am 18.7 SW 9 12 1024.1 - 0.0 - - 10 - - - -
28/09:30am 18.1 SW 10 13 1024.1 - 0.0 - - 10 - - - -
28/09:00am 17.3 WSW 11 14 1024.3 - 0.0 - - 10 - - - -
28/08:30am 16.5 WSW 9 13 1024.3 - 0.0 - - 10 - - - -
28/08:00am 15.0 WSW 11 15 1024.3 - 0.0 - - 10 - - - -
28/07:30am 14.1 WSW 8 11 1024.0 - 0.0 - - 10 - - - -
28/07:00am 11.7 W 5 6 1023.5 - 0.0 - - 10 - - - -
28/06:30am 10.5 WSW 7 8 1023.1 - 0.0 - - 10 - - - -
28/06:00am 10.6 WSW 9 11 1022.8 - 0.0 - - 10 - - - -
28/05:30am 10.8 WSW 8 10 1022.5 - 0.0 - - 10 - - - -
28/05:00am 10.2 WSW 8 9 1022.1 - 0.0 - - 10 - - - -
28/04:30am 10.6 WSW 8 10 1021.9 - 0.0 - - 10 - - - -
28/04:00am 10.5 W 8 9 1021.7 - 0.0 - - 10 - - - -
28/03:30am 10.8 WSW 7 9 1021.6 - 0.0 - - 10 - - - -
28/03:00am 11.0 WSW 7 8 1021.6 - 0.0 - - 10 - - - -
28/02:30am 10.7 WSW 5 7 1021.7 - 0.0 - - 10 - - - -
28/02:00am 10.9 W 8 10 1021.8 - 0.0 - - 10 - - - -
28/01:30am 11.5 WSW 8 10 1021.8 - 0.0 - - 10 - - - -
28/01:00am 11.4 WSW 7 9 1021.7 - 0.0 - - 10 - - - -
28/12:30am 12.4 WSW 8 11 1021.8 - 0.0 - - 10 - - - -
28/12:00am 13.4 WSW 7 9 1021.9 - 0.0 - - 10 - - - -
 
Date/Time
EST
Temp
°C
Wind Pressure Rain since
9am
mm
Weather Cloud Vis
km
Sea
Height
m
Swell
Dir  Spd
kts
Gust
kts
hPa Trend Height
m
Period
s
Dir
27/11:30pm 14.2 SW 7 10 1021.8 - 0.0 - Partly cloudy 10 - - - -
27/11:00pm 14.0 WSW 8 12 1021.8 - 0.0 - Partly cloudy 10 - - - -
27/10:30pm 14.2 WSW 8 10 1022.0 - 0.0 - Partly cloudy 10 - - - -
27/10:00pm 14.7 SW 7 9 1022.1 - 0.0 - Partly cloudy 10 - - - -
27/09:30pm 14.2 WSW 6 8 1021.8 - 0.0 - Partly cloudy 10 - - - -
27/09:00pm 14.5 SW 7 9 1021.9 - 0.0 - Cloudy 10 - - - -
27/08:30pm 13.2 WSW 7 8 1021.6 - 0.0 - Partly cloudy 10 - - - -
27/08:00pm 13.8 WSW 7 9 1021.4 - 0.0 - Partly cloudy 10 - - - -
27/07:30pm 14.3 WSW 5 7 1021.1 - 0.0 - Partly cloudy 10 - - - -
27/07:00pm 15.4 SSW 12 20 1021.0 - 0.0 - - 10 - - - -
27/06:30pm 16.2 SSW 11 15 1020.6 - 0.0 - Partly cloudy 10 - - - -
27/06:00pm 16.7 SSW 12 17 1020.1 - 0.0 - Mostly clear 10 - - - -
27/05:30pm 16.8 S 13 19 1019.7 - 0.0 - Cloudy 10 - - - -
27/05:00pm 16.8 S 13 17 1019.6 - 0.0 - Partly cloudy 10 - - - -
27/04:30pm 17.4 SSW 15 20 1019.3 - 0.0 - - 10 - - - -
27/04:00pm 17.6 S 16 22 1019.0 - 0.0 - - 10 - - - -
27/03:30pm 17.7 S 15 21 1019.0 - 0.0 - - 10 - - - -
27/03:00pm 17.7 S 14 20 1018.9 - 0.0 - Partly cloudy 10 - - - -
27/02:30pm 17.5 S 15 23 1018.9 - 0.0 - Partly cloudy 10 - - - -
27/02:00pm 17.7 S 15 22 1018.9 - 0.0 - Partly cloudy 10 - - - -
27/01:30pm 17.5 SSW 13 19 1018.9 - 0.0 - Partly cloudy 10 - - - -
27/01:00pm 19.3 SSW 13 19 1018.9 - 0.0 - Partly cloudy 10 - - - -
27/12:30pm 18.6 SSW 15 21 1019.1 - 0.0 - - 10 - - - -
27/12:00pm 18.2 SSW 15 21 1019.6 - 0.0 - Mostly clear 10 - - - -
27/11:30am 18.1 SSW 14 22 1020.0 - 0.0 - Partly cloudy 10 - - - -
27/11:00am 17.8 SSW 15 21 1020.1 - 0.0 - Partly cloudy 10 - - - -
27/10:30am 17.1 SW 11 16 1020.2 - 0.0 - - 10 - - - -
27/10:00am 16.1 SW 13 19 1020.3 - 0.0 - - 10 - - - -
27/09:30am 15.6 SW 14 19 1020.1 - 0.0 - - 10 - - - -
27/09:00am 15.0 WSW 13 18 1020.3 - 0.0 - - 10 - - - -
27/08:30am 14.5 WSW 13 17 1020.4 - 0.0 - - 10 - - - -
27/08:00am 13.6 WSW 12 16 1020.1 - 0.0 - - 10 - - - -
27/07:30am 12.2 W 9 11 1019.9 - 0.0 - - 10 - - - -
27/07:00am 9.9 WSW 6 8 1019.7 - 0.0 - - 10 - - - -
27/06:30am 8.6 WSW 5 6 1019.4 - 0.0 - - 10 - - - -
27/06:00am 8.4 W 8 9 1019.3 - 0.0 - - 10 - - - -
27/05:30am 9.2 W 9 11 1019.0 - 0.0 - - 10 - - - -
27/05:00am 10.0 WSW 8 10 1018.7 - 0.0 - - 10 - - - -
27/04:30am 11.4 WSW 10 13 1018.5 - 0.0 - - 10 - - - -
27/04:00am 12.4 SW 11 16 1018.0 - 0.0 - - 10 - - - -
27/03:30am 12.8 SW 10 14 1017.9 - 0.0 - - 10 - - - -
27/03:00am 12.5 SW 9 12 1017.7 - 0.0 - Cloudy 10 - - - -
27/02:30am 12.6 SW 11 15 1017.7 - 0.0 - - 10 - - - -
27/02:00am 12.7 SW 12 17 1017.7 - 0.0 - Cloudy 10 - - - -
27/01:30am 12.7 SW 10 13 1017.9 - 0.0 - - 10 - - - -
27/01:00am 12.7 WSW 11 15 1017.9 - 0.0 - Partly cloudy 10 - - - -
27/12:30am 12.5 WSW 9 11 1018.3 - 0.0 - Partly cloudy 10 - - - -
27/12:00am 12.6 WSW 8 11 1018.2 - 0.0 - Cloudy 10 - - - -
 
Date/Time
EST
Temp
°C
Wind Pressure Rain since
9am
mm
Weather Cloud Vis
km
Sea
Height
m
Swell
Dir  Spd
kts
Gust
kts
hPa Trend Height
m
Period
s
Dir
26/11:30pm 11.7 WSW 8 10 1018.0 - 0.0 - Partly cloudy 10 - - - -
26/11:00pm 10.7 WSW 7 9 1017.9 - 0.0 - Partly cloudy 10 - - - -
26/10:30pm 11.7 WSW 6 7 1017.5 - 0.0 - Partly cloudy 10 - - - -
26/10:00pm 12.6 WSW 7 9 1017.7 - 0.0 - - 10 - - - -
26/09:30pm 13.2 WSW 8 10 1017.5 - 0.0 - - 10 - - - -
26/09:00pm 12.0 W 7 9 1017.5 - 0.0 - Mostly clear 10 - - - -
26/08:30pm 13.4 SW 6 8 1017.1 - 0.0 - - 10 - - - -
26/08:00pm 15.0 SW 6 8 1017.4 - 0.0 - - 10 - - - -
26/07:30pm 15.1 S 7 11 1017.4 - 0.0 - Partly cloudy 10 - - - -
26/07:00pm 15.6 SSE 7 9 1017.3 - 0.0 - Partly cloudy 10 - - - -
26/06:30pm 15.6 S 8 12 1017.0 - 0.0 - Partly cloudy 10 - - - -
26/06:00pm 15.6 SSE 8 12 1016.6 - 0.0 - Mostly cloudy 10 - - - -
26/05:30pm 16.0 SSE 8 11 1016.3 - 0.0 - Cloudy 10 - - - -

Other Formats:

Comma delimited format used in spreadsheet applications
http://www.bom.gov.au/fwo/IDN60701/IDN60701.94596.axf

JavaScript Object Notation format (JSON) in row-major order
http://www.bom.gov.au/fwo/IDN60701/IDN60701.94596.json